sensor_id;sensor_type;location;lat;lon;timestamp;P1;durP1;ratioP1;P2;durP2;ratioP2
40373;SDS011;26079;45.958;12.492;2022-09-09T00:09:45;3.67;;;1.83;;
40373;SDS011;26079;45.958;12.492;2022-09-09T00:12:27;3.08;;;1.85;;
40373;SDS011;26079;45.958;12.492;2022-09-09T00:15:20;6.63;;;2.38;;
40373;SDS011;26079;45.958;12.492;2022-09-09T00:21:05;5.35;;;2.22;;
40373;SDS011;26079;45.958;12.492;2022-09-09T00:23:37;4.88;;;2.10;;
40373;SDS011;26079;45.958;12.492;2022-09-09T00:26:08;2.10;;;1.90;;
40373;SDS011;26079;45.958;12.492;2022-09-09T00:28:55;3.47;;;2.42;;
40373;SDS011;26079;45.958;12.492;2022-09-09T00:31:30;2.50;;;2.15;;
40373;SDS011;26079;45.958;12.492;2022-09-09T00:34:02;5.18;;;2.50;;
40373;SDS011;26079;45.958;12.492;2022-09-09T00:36:38;8.85;;;2.00;;
40373;SDS011;26079;45.958;12.492;2022-09-09T00:39:04;6.78;;;2.08;;
40373;SDS011;26079;45.958;12.492;2022-09-09T00:44:32;5.38;;;2.08;;
40373;SDS011;26079;45.958;12.492;2022-09-09T00:57:45;3.97;;;2.03;;
40373;SDS011;26079;45.958;12.492;2022-09-09T01:08:19;2.00;;;1.80;;
40373;SDS011;26079;45.958;12.492;2022-09-09T01:11:00;2.75;;;1.90;;
40373;SDS011;26079;45.958;12.492;2022-09-09T01:13:34;2.85;;;2.15;;
40373;SDS011;26079;45.958;12.492;2022-09-09T01:16:04;2.50;;;1.63;;
40373;SDS011;26079;45.958;12.492;2022-09-09T01:18:37;4.65;;;1.67;;
40373;SDS011;26079;45.958;12.492;2022-09-09T01:27:02;4.38;;;2.17;;
40373;SDS011;26079;45.958;12.492;2022-09-09T01:29:30;8.25;;;2.38;;
40373;SDS011;26079;45.958;12.492;2022-09-09T01:35:07;5.63;;;2.03;;
40373;SDS011;26079;45.958;12.492;2022-09-09T01:37:44;5.88;;;2.72;;
40373;SDS011;26079;45.958;12.492;2022-09-09T01:40:10;13.13;;;3.88;;
40373;SDS011;26079;45.958;12.492;2022-09-09T01:42:36;4.93;;;2.05;;
40373;SDS011;26079;45.958;12.492;2022-09-09T01:45:01;6.43;;;2.10;;
40373;SDS011;26079;45.958;12.492;2022-09-09T01:47:28;6.43;;;2.05;;
40373;SDS011;26079;45.958;12.492;2022-09-09T01:49:54;9.07;;;3.08;;
40373;SDS011;26079;45.958;12.492;2022-09-09T01:52:20;3.00;;;2.15;;
40373;SDS011;26079;45.958;12.492;2022-09-09T01:54:46;7.63;;;2.10;;
40373;SDS011;26079;45.958;12.492;2022-09-09T01:57:23;5.25;;;1.98;;
40373;SDS011;26079;45.958;12.492;2022-09-09T02:00:06;5.78;;;1.70;;
40373;SDS011;26079;45.958;12.492;2022-09-09T02:08:08;5.13;;;2.22;;
40373;SDS011;26079;45.958;12.492;2022-09-09T02:13:31;7.45;;;2.63;;
40373;SDS011;26079;45.958;12.492;2022-09-09T02:21:11;4.55;;;2.22;;
40373;SDS011;26079;45.958;12.492;2022-09-09T02:23:39;2.78;;;1.73;;
40373;SDS011;26079;45.958;12.492;2022-09-09T02:26:07;3.17;;;2.20;;
40373;SDS011;26079;45.958;12.492;2022-09-09T02:28:37;9.25;;;3.08;;
40373;SDS011;26079;45.958;12.492;2022-09-09T02:31:07;6.07;;;2.53;;
40373;SDS011;26079;45.958;12.492;2022-09-09T02:33:43;14.05;;;3.88;;
40373;SDS011;26079;45.958;12.492;2022-09-09T02:36:12;7.60;;;2.47;;
40373;SDS011;26079;45.958;12.492;2022-09-09T02:38:45;4.85;;;2.13;;
40373;SDS011;26079;45.958;12.492;2022-09-09T02:41:22;2.17;;;1.98;;
40373;SDS011;26079;45.958;12.492;2022-09-09T02:43:53;7.38;;;2.38;;
40373;SDS011;26079;45.958;12.492;2022-09-09T02:48:51;5.18;;;2.78;;
40373;SDS011;26079;45.958;12.492;2022-09-09T02:54:27;6.97;;;3.55;;
40373;SDS011;26079;45.958;12.492;2022-09-09T02:56:56;5.97;;;2.70;;
40373;SDS011;26079;45.958;12.492;2022-09-09T02:59:32;10.65;;;2.22;;
40373;SDS011;26079;45.958;12.492;2022-09-09T03:01:58;6.25;;;2.47;;
40373;SDS011;26079;45.958;12.492;2022-09-09T03:04:24;4.40;;;3.03;;
40373;SDS011;26079;45.958;12.492;2022-09-09T03:06:50;4.05;;;2.20;;
40373;SDS011;26079;45.958;12.492;2022-09-09T03:09:16;7.38;;;2.92;;
40373;SDS011;26079;45.958;12.492;2022-09-09T03:11:42;5.88;;;2.15;;
40373;SDS011;26079;45.958;12.492;2022-09-09T03:14:07;9.85;;;3.42;;
40373;SDS011;26079;45.958;12.492;2022-09-09T03:16:33;7.57;;;1.90;;
40373;SDS011;26079;45.958;12.492;2022-09-09T03:18:59;3.40;;;1.92;;
40373;SDS011;26079;45.958;12.492;2022-09-09T03:21:25;1.45;;;1.25;;
40373;SDS011;26079;45.958;12.492;2022-09-09T03:23:51;5.28;;;2.17;;
40373;SDS011;26079;45.958;12.492;2022-09-09T03:26:17;7.28;;;1.70;;
40373;SDS011;26079;45.958;12.492;2022-09-09T03:28:43;3.05;;;1.80;;
40373;SDS011;26079;45.958;12.492;2022-09-09T03:31:09;3.13;;;1.73;;
40373;SDS011;26079;45.958;12.492;2022-09-09T03:33:36;2.17;;;1.60;;
40373;SDS011;26079;45.958;12.492;2022-09-09T03:36:03;3.38;;;1.67;;
40373;SDS011;26079;45.958;12.492;2022-09-09T03:38:29;1.65;;;1.52;;
40373;SDS011;26079;45.958;12.492;2022-09-09T03:40:57;3.28;;;1.90;;
40373;SDS011;26079;45.958;12.492;2022-09-09T03:43:23;3.65;;;2.00;;
40373;SDS011;26079;45.958;12.492;2022-09-09T03:45:50;2.22;;;1.90;;
40373;SDS011;26079;45.958;12.492;2022-09-09T03:48:17;3.08;;;2.10;;
40373;SDS011;26079;45.958;12.492;2022-09-09T03:50:44;7.65;;;1.48;;
40373;SDS011;26079;45.958;12.492;2022-09-09T03:53:14;3.38;;;2.08;;
40373;SDS011;26079;45.958;12.492;2022-09-09T03:55:48;2.22;;;1.63;;
40373;SDS011;26079;45.958;12.492;2022-09-09T03:58:15;2.88;;;1.95;;
40373;SDS011;26079;45.958;12.492;2022-09-09T04:00:43;5.65;;;3.00;;
40373;SDS011;26079;45.958;12.492;2022-09-09T04:03:18;1.85;;;1.60;;
40373;SDS011;26079;45.958;12.492;2022-09-09T04:05:44;2.83;;;1.58;;
40373;SDS011;26079;45.958;12.492;2022-09-09T04:08:09;2.60;;;2.05;;
40373;SDS011;26079;45.958;12.492;2022-09-09T04:10:36;1.75;;;1.65;;
40373;SDS011;26079;45.958;12.492;2022-09-09T04:13:03;3.25;;;1.98;;
40373;SDS011;26079;45.958;12.492;2022-09-09T04:15:30;2.75;;;1.70;;
40373;SDS011;26079;45.958;12.492;2022-09-09T04:18:00;4.10;;;1.92;;
40373;SDS011;26079;45.958;12.492;2022-09-09T04:20:26;5.38;;;1.50;;
40373;SDS011;26079;45.958;12.492;2022-09-09T04:22:51;3.10;;;1.52;;
40373;SDS011;26079;45.958;12.492;2022-09-09T04:25:17;4.32;;;1.50;;
40373;SDS011;26079;45.958;12.492;2022-09-09T04:27:43;2.60;;;1.80;;
40373;SDS011;26079;45.958;12.492;2022-09-09T04:30:09;3.33;;;2.72;;
40373;SDS011;26079;45.958;12.492;2022-09-09T04:32:35;2.58;;;2.03;;
40373;SDS011;26079;45.958;12.492;2022-09-09T04:35:01;3.20;;;1.63;;
40373;SDS011;26079;45.958;12.492;2022-09-09T04:37:27;4.70;;;2.22;;
40373;SDS011;26079;45.958;12.492;2022-09-09T04:39:53;5.20;;;2.50;;
40373;SDS011;26079;45.958;12.492;2022-09-09T04:42:19;1.77;;;1.55;;
40373;SDS011;26079;45.958;12.492;2022-09-09T04:44:44;2.35;;;1.80;;
40373;SDS011;26079;45.958;12.492;2022-09-09T04:47:10;3.30;;;1.70;;
40373;SDS011;26079;45.958;12.492;2022-09-09T04:49:36;2.03;;;1.80;;
40373;SDS011;26079;45.958;12.492;2022-09-09T04:52:03;2.25;;;1.65;;
40373;SDS011;26079;45.958;12.492;2022-09-09T04:54:29;3.47;;;1.70;;
40373;SDS011;26079;45.958;12.492;2022-09-09T04:56:55;1.45;;;1.35;;
40373;SDS011;26079;45.958;12.492;2022-09-09T04:59:20;3.35;;;1.65;;
40373;SDS011;26079;45.958;12.492;2022-09-09T05:01:47;2.45;;;1.75;;
40373;SDS011;26079;45.958;12.492;2022-09-09T05:04:15;2.50;;;1.85;;
40373;SDS011;26079;45.958;12.492;2022-09-09T05:06:41;3.50;;;1.63;;
40373;SDS011;26079;45.958;12.492;2022-09-09T05:09:07;1.83;;;1.45;;
40373;SDS011;26079;45.958;12.492;2022-09-09T05:11:33;4.07;;;1.90;;
40373;SDS011;26079;45.958;12.492;2022-09-09T05:14:02;3.30;;;2.53;;
40373;SDS011;26079;45.958;12.492;2022-09-09T05:16:28;1.92;;;1.73;;
40373;SDS011;26079;45.958;12.492;2022-09-09T05:18:55;4.55;;;2.95;;
40373;SDS011;26079;45.958;12.492;2022-09-09T05:21:22;1.75;;;1.50;;
40373;SDS011;26079;45.958;12.492;2022-09-09T05:23:50;3.40;;;1.77;;
40373;SDS011;26079;45.958;12.492;2022-09-09T05:26:16;3.13;;;1.50;;
40373;SDS011;26079;45.958;12.492;2022-09-09T05:28:44;9.00;;;2.08;;
40373;SDS011;26079;45.958;12.492;2022-09-09T05:31:10;2.90;;;1.20;;
40373;SDS011;26079;45.958;12.492;2022-09-09T05:33:38;3.67;;;1.38;;
40373;SDS011;26079;45.958;12.492;2022-09-09T05:36:08;1.38;;;1.27;;
40373;SDS011;26079;45.958;12.492;2022-09-09T05:38:39;2.22;;;1.35;;
40373;SDS011;26079;45.958;12.492;2022-09-09T05:41:05;1.50;;;1.40;;
40373;SDS011;26079;45.958;12.492;2022-09-09T05:43:32;5.68;;;1.38;;
40373;SDS011;26079;45.958;12.492;2022-09-09T05:46:04;1.98;;;1.83;;
40373;SDS011;26079;45.958;12.492;2022-09-09T05:48:39;4.53;;;1.67;;
40373;SDS011;26079;45.958;12.492;2022-09-09T05:51:08;2.00;;;1.80;;
40373;SDS011;26079;45.958;12.492;2022-09-09T05:53:36;2.85;;;1.58;;
40373;SDS011;26079;45.958;12.492;2022-09-09T05:56:13;2.05;;;1.63;;
40373;SDS011;26079;45.958;12.492;2022-09-09T05:58:44;2.38;;;1.48;;
40373;SDS011;26079;45.958;12.492;2022-09-09T06:03:48;1.65;;;1.52;;
40373;SDS011;26079;45.958;12.492;2022-09-09T06:06:19;2.55;;;1.40;;
40373;SDS011;26079;45.958;12.492;2022-09-09T06:08:46;3.55;;;1.75;;
40373;SDS011;26079;45.958;12.492;2022-09-09T06:11:14;1.42;;;1.05;;
40373;SDS011;26079;45.958;12.492;2022-09-09T06:13:41;2.35;;;1.58;;
40373;SDS011;26079;45.958;12.492;2022-09-09T06:16:12;4.57;;;1.75;;
40373;SDS011;26079;45.958;12.492;2022-09-09T06:18:39;4.07;;;2.35;;
40373;SDS011;26079;45.958;12.492;2022-09-09T06:21:07;4.80;;;1.95;;
40373;SDS011;26079;45.958;12.492;2022-09-09T06:23:39;3.45;;;2.60;;
40373;SDS011;26079;45.958;12.492;2022-09-09T06:26:13;1.75;;;1.65;;
40373;SDS011;26079;45.958;12.492;2022-09-09T06:28:44;3.00;;;1.80;;
40373;SDS011;26079;45.958;12.492;2022-09-09T06:31:11;1.95;;;1.65;;
40373;SDS011;26079;45.958;12.492;2022-09-09T06:33:41;1.65;;;1.55;;
40373;SDS011;26079;45.958;12.492;2022-09-09T06:36:12;1.83;;;1.45;;
40373;SDS011;26079;45.958;12.492;2022-09-09T06:38:39;3.22;;;1.40;;
40373;SDS011;26079;45.958;12.492;2022-09-09T06:41:06;3.53;;;1.70;;
40373;SDS011;26079;45.958;12.492;2022-09-09T06:43:33;1.77;;;1.30;;
40373;SDS011;26079;45.958;12.492;2022-09-09T06:46:00;1.55;;;1.42;;
40373;SDS011;26079;45.958;12.492;2022-09-09T06:48:28;1.60;;;1.20;;
40373;SDS011;26079;45.958;12.492;2022-09-09T06:51:04;1.33;;;1.20;;
40373;SDS011;26079;45.958;12.492;2022-09-09T06:53:30;2.17;;;1.02;;
40373;SDS011;26079;45.958;12.492;2022-09-09T06:55:59;3.15;;;1.52;;
40373;SDS011;26079;45.958;12.492;2022-09-09T06:58:42;1.23;;;1.10;;
40373;SDS011;26079;45.958;12.492;2022-09-09T07:01:09;1.55;;;1.20;;
40373;SDS011;26079;45.958;12.492;2022-09-09T07:03:39;2.42;;;1.33;;
40373;SDS011;26079;45.958;12.492;2022-09-09T07:06:06;1.63;;;1.50;;
40373;SDS011;26079;45.958;12.492;2022-09-09T07:08:34;2.17;;;1.05;;
40373;SDS011;26079;45.958;12.492;2022-09-09T07:11:03;1.20;;;1.10;;
40373;SDS011;26079;45.958;12.492;2022-09-09T07:13:30;2.40;;;1.65;;
40373;SDS011;26079;45.958;12.492;2022-09-09T07:16:03;1.20;;;1.05;;
40373;SDS011;26079;45.958;12.492;2022-09-09T07:18:36;1.70;;;1.33;;
40373;SDS011;26079;45.958;12.492;2022-09-09T07:21:02;2.03;;;1.25;;
40373;SDS011;26079;45.958;12.492;2022-09-09T07:23:29;3.45;;;1.70;;
40373;SDS011;26079;45.958;12.492;2022-09-09T07:25:55;2.20;;;1.15;;
40373;SDS011;26079;45.958;12.492;2022-09-09T07:28:23;1.70;;;1.50;;
40373;SDS011;26079;45.958;12.492;2022-09-09T07:30:52;3.90;;;1.98;;
40373;SDS011;26079;45.958;12.492;2022-09-09T07:33:19;2.88;;;0.98;;
40373;SDS011;26079;45.958;12.492;2022-09-09T07:35:45;2.45;;;1.30;;
40373;SDS011;26079;45.958;12.492;2022-09-09T07:38:11;1.60;;;1.13;;
40373;SDS011;26079;45.958;12.492;2022-09-09T07:40:37;2.22;;;1.65;;
40373;SDS011;26079;45.958;12.492;2022-09-09T07:43:03;2.33;;;1.15;;
40373;SDS011;26079;45.958;12.492;2022-09-09T07:45:29;0.68;;;0.68;;
40373;SDS011;26079;45.958;12.492;2022-09-09T07:47:57;1.88;;;1.13;;
40373;SDS011;26079;45.958;12.492;2022-09-09T07:50:23;1.42;;;1.33;;
40373;SDS011;26079;45.958;12.492;2022-09-09T07:52:50;1.20;;;1.10;;
40373;SDS011;26079;45.958;12.492;2022-09-09T07:55:16;1.45;;;1.27;;
40373;SDS011;26079;45.958;12.492;2022-09-09T07:57:42;2.33;;;1.00;;
40373;SDS011;26079;45.958;12.492;2022-09-09T08:00:08;3.50;;;0.85;;
40373;SDS011;26079;45.958;12.492;2022-09-09T08:02:35;2.00;;;1.00;;
40373;SDS011;26079;45.958;12.492;2022-09-09T08:05:01;0.90;;;0.80;;
40373;SDS011;26079;45.958;12.492;2022-09-09T08:07:27;2.35;;;1.38;;
40373;SDS011;26079;45.958;12.492;2022-09-09T08:09:55;2.88;;;1.17;;
40373;SDS011;26079;45.958;12.492;2022-09-09T08:12:50;3.67;;;1.20;;
40373;SDS011;26079;45.958;12.492;2022-09-09T08:15:17;1.35;;;0.85;;
40373;SDS011;26079;45.958;12.492;2022-09-09T08:17:43;0.73;;;0.70;;
40373;SDS011;26079;45.958;12.492;2022-09-09T08:20:09;1.85;;;0.80;;
40373;SDS011;26079;45.958;12.492;2022-09-09T08:22:36;0.77;;;0.77;;
40373;SDS011;26079;45.958;12.492;2022-09-09T08:25:02;1.80;;;0.88;;
40373;SDS011;26079;45.958;12.492;2022-09-09T08:27:31;1.05;;;0.90;;
40373;SDS011;26079;45.958;12.492;2022-09-09T08:29:57;1.13;;;0.90;;
40373;SDS011;26079;45.958;12.492;2022-09-09T08:32:23;1.90;;;0.93;;
40373;SDS011;26079;45.958;12.492;2022-09-09T08:34:49;1.05;;;0.75;;
40373;SDS011;26079;45.958;12.492;2022-09-09T08:37:16;1.02;;;0.93;;
40373;SDS011;26079;45.958;12.492;2022-09-09T08:39:41;3.95;;;2.10;;
40373;SDS011;26079;45.958;12.492;2022-09-09T08:42:28;2.40;;;1.00;;
40373;SDS011;26079;45.958;12.492;2022-09-09T08:55:47;2.78;;;0.98;;
40373;SDS011;26079;45.958;12.492;2022-09-09T08:58:27;1.40;;;1.05;;
40373;SDS011;26079;45.958;12.492;2022-09-09T09:01:03;1.90;;;1.10;;
40373;SDS011;26079;45.958;12.492;2022-09-09T09:13:01;1.27;;;0.88;;
40373;SDS011;26079;45.958;12.492;2022-09-09T09:15:33;6.03;;;1.15;;
40373;SDS011;26079;45.958;12.492;2022-09-09T09:18:08;0.73;;;0.60;;
40373;SDS011;26079;45.958;12.492;2022-09-09T09:20:47;1.27;;;0.95;;
40373;SDS011;26079;45.958;12.492;2022-09-09T09:23:39;2.65;;;1.20;;
40373;SDS011;26079;45.958;12.492;2022-09-09T09:26:30;0.93;;;0.80;;
40373;SDS011;26079;45.958;12.492;2022-09-09T09:29:12;1.27;;;1.00;;
40373;SDS011;26079;45.958;12.492;2022-09-09T09:31:56;2.65;;;0.90;;
40373;SDS011;26079;45.958;12.492;2022-09-09T09:34:28;2.38;;;0.90;;
40373;SDS011;26079;45.958;12.492;2022-09-09T09:36:57;2.15;;;1.08;;
40373;SDS011;26079;45.958;12.492;2022-09-09T09:39:45;3.08;;;1.80;;
40373;SDS011;26079;45.958;12.492;2022-09-09T09:42:15;1.27;;;0.60;;
40373;SDS011;26079;45.958;12.492;2022-09-09T09:44:44;2.47;;;1.30;;
40373;SDS011;26079;45.958;12.492;2022-09-09T09:47:12;0.57;;;0.57;;
40373;SDS011;26079;45.958;12.492;2022-09-09T09:50:19;1.85;;;0.90;;
40373;SDS011;26079;45.958;12.492;2022-09-09T09:52:53;1.55;;;0.93;;
40373;SDS011;26079;45.958;12.492;2022-09-09T09:55:26;3.47;;;1.00;;
40373;SDS011;26079;45.958;12.492;2022-09-09T09:58:15;2.03;;;0.90;;
40373;SDS011;26079;45.958;12.492;2022-09-09T10:07:17;0.85;;;0.85;;
40373;SDS011;26079;45.958;12.492;2022-09-09T10:09:53;1.05;;;0.73;;
40373;SDS011;26079;45.958;12.492;2022-09-09T10:12:33;0.65;;;0.63;;
40373;SDS011;26079;45.958;12.492;2022-09-09T10:16:19;1.30;;;0.90;;
40373;SDS011;26079;45.958;12.492;2022-09-09T10:35:25;1.02;;;0.93;;
40373;SDS011;26079;45.958;12.492;2022-09-09T10:40:47;1.63;;;1.23;;
40373;SDS011;26079;45.958;12.492;2022-09-09T10:57:07;1.15;;;0.95;;
40373;SDS011;26079;45.958;12.492;2022-09-09T11:00:16;1.65;;;0.82;;
40373;SDS011;26079;45.958;12.492;2022-09-09T11:02:43;0.82;;;0.80;;
40373;SDS011;26079;45.958;12.492;2022-09-09T11:05:17;1.60;;;0.73;;
40373;SDS011;26079;45.958;12.492;2022-09-09T11:07:51;1.98;;;0.95;;
40373;SDS011;26079;45.958;12.492;2022-09-09T11:10:39;0.75;;;0.68;;
40373;SDS011;26079;45.958;12.492;2022-09-09T11:16:42;1.05;;;0.95;;
40373;SDS011;26079;45.958;12.492;2022-09-09T11:19:24;0.65;;;0.63;;
40373;SDS011;26079;45.958;12.492;2022-09-09T11:21:52;0.77;;;0.50;;
40373;SDS011;26079;45.958;12.492;2022-09-09T11:26:59;1.42;;;0.98;;
40373;SDS011;26079;45.958;12.492;2022-09-09T11:30:06;2.17;;;0.65;;
40373;SDS011;26079;45.958;12.492;2022-09-09T11:32:44;3.33;;;1.52;;
40373;SDS011;26079;45.958;12.492;2022-09-09T11:35:21;0.95;;;0.70;;
40373;SDS011;26079;45.958;12.492;2022-09-09T11:40:56;0.75;;;0.75;;
40373;SDS011;26079;45.958;12.492;2022-09-09T11:46:20;0.77;;;0.60;;
40373;SDS011;26079;45.958;12.492;2022-09-09T11:49:02;1.77;;;1.07;;
40373;SDS011;26079;45.958;12.492;2022-09-09T11:51:30;0.75;;;0.75;;
40373;SDS011;26079;45.958;12.492;2022-09-09T11:54:01;1.75;;;0.85;;
40373;SDS011;26079;45.958;12.492;2022-09-09T11:56:47;1.73;;;1.40;;
40373;SDS011;26079;45.958;12.492;2022-09-09T11:59:21;1.38;;;1.08;;
40373;SDS011;26079;45.958;12.492;2022-09-09T12:01:59;1.80;;;0.57;;
40373;SDS011;26079;45.958;12.492;2022-09-09T12:04:36;0.47;;;0.45;;
40373;SDS011;26079;45.958;12.492;2022-09-09T12:14:59;1.27;;;0.55;;
40373;SDS011;26079;45.958;12.492;2022-09-09T12:17:31;0.73;;;0.47;;
40373;SDS011;26079;45.958;12.492;2022-09-09T12:34:29;0.30;;;0.30;;
40373;SDS011;26079;45.958;12.492;2022-09-09T12:42:49;0.47;;;0.47;;
40373;SDS011;26079;45.958;12.492;2022-09-09T12:45:19;1.35;;;0.50;;
40373;SDS011;26079;45.958;12.492;2022-09-09T12:47:59;1.42;;;1.33;;
40373;SDS011;26079;45.958;12.492;2022-09-09T12:50:32;0.55;;;0.40;;
40373;SDS011;26079;45.958;12.492;2022-09-09T12:53:02;1.52;;;0.60;;
40373;SDS011;26079;45.958;12.492;2022-09-09T12:55:48;0.65;;;0.40;;
40373;SDS011;26079;45.958;12.492;2022-09-09T12:58:17;0.77;;;0.63;;
40373;SDS011;26079;45.958;12.492;2022-09-09T13:01:03;1.52;;;0.50;;
40373;SDS011;26079;45.958;12.492;2022-09-09T13:03:30;0.93;;;0.73;;
40373;SDS011;26079;45.958;12.492;2022-09-09T13:05:58;1.35;;;0.73;;
40373;SDS011;26079;45.958;12.492;2022-09-09T13:08:36;0.40;;;0.40;;
40373;SDS011;26079;45.958;12.492;2022-09-09T13:11:03;1.02;;;0.93;;
40373;SDS011;26079;45.958;12.492;2022-09-09T13:13:35;0.75;;;0.75;;
40373;SDS011;26079;45.958;12.492;2022-09-09T13:16:03;0.73;;;0.70;;
40373;SDS011;26079;45.958;12.492;2022-09-09T13:18:33;5.18;;;1.90;;
40373;SDS011;26079;45.958;12.492;2022-09-09T13:21:00;1.33;;;0.80;;
40373;SDS011;26079;45.958;12.492;2022-09-09T13:23:30;0.40;;;0.40;;
40373;SDS011;26079;45.958;12.492;2022-09-09T13:25:58;0.47;;;0.47;;
40373;SDS011;26079;45.958;12.492;2022-09-09T13:28:29;0.85;;;0.65;;
40373;SDS011;26079;45.958;12.492;2022-09-09T13:31:38;1.38;;;1.05;;
40373;SDS011;26079;45.958;12.492;2022-09-09T13:33:54;1.25;;;0.45;;
40373;SDS011;26079;45.958;12.492;2022-09-09T13:36:30;1.15;;;0.73;;
40373;SDS011;26079;45.958;12.492;2022-09-09T13:39:00;4.80;;;0.55;;
40373;SDS011;26079;45.958;12.492;2022-09-09T13:44:22;0.98;;;0.57;;
40373;SDS011;26079;45.958;12.492;2022-09-09T13:49:42;0.85;;;0.40;;
40373;SDS011;26079;45.958;12.492;2022-09-09T13:52:12;2.05;;;0.60;;
40373;SDS011;26079;45.958;12.492;2022-09-09T13:54:40;1.50;;;0.47;;
40373;SDS011;26079;45.958;12.492;2022-09-09T13:59:43;1.63;;;0.60;;
40373;SDS011;26079;45.958;12.492;2022-09-09T14:02:09;0.63;;;0.30;;
40373;SDS011;26079;45.958;12.492;2022-09-09T14:04:35;0.68;;;0.40;;
40373;SDS011;26079;45.958;12.492;2022-09-09T14:07:01;1.25;;;0.45;;
40373;SDS011;26079;45.958;12.492;2022-09-09T14:09:28;2.15;;;1.35;;
40373;SDS011;26079;45.958;12.492;2022-09-09T14:11:53;1.48;;;0.73;;
40373;SDS011;26079;45.958;12.492;2022-09-09T14:14:20;1.10;;;0.82;;
40373;SDS011;26079;45.958;12.492;2022-09-09T14:16:46;3.47;;;1.00;;
40373;SDS011;26079;45.958;12.492;2022-09-09T14:19:12;1.50;;;0.70;;
40373;SDS011;26079;45.958;12.492;2022-09-09T14:21:37;1.08;;;0.70;;
40373;SDS011;26079;45.958;12.492;2022-09-09T14:24:03;0.98;;;0.88;;
40373;SDS011;26079;45.958;12.492;2022-09-09T14:26:29;3.22;;;0.55;;
40373;SDS011;26079;45.958;12.492;2022-09-09T14:28:55;0.82;;;0.47;;
40373;SDS011;26079;45.958;12.492;2022-09-09T14:31:22;2.97;;;0.80;;
40373;SDS011;26079;45.958;12.492;2022-09-09T14:33:48;3.92;;;0.68;;
40373;SDS011;26079;45.958;12.492;2022-09-09T14:36:14;0.80;;;0.80;;
40373;SDS011;26079;45.958;12.492;2022-09-09T14:38:40;3.58;;;0.80;;
40373;SDS011;26079;45.958;12.492;2022-09-09T14:41:07;1.45;;;0.70;;
40373;SDS011;26079;45.958;12.492;2022-09-09T14:43:37;2.33;;;1.70;;
40373;SDS011;26079;45.958;12.492;2022-09-09T14:46:10;2.28;;;1.02;;
40373;SDS011;26079;45.958;12.492;2022-09-09T14:48:38;2.75;;;1.27;;
40373;SDS011;26079;45.958;12.492;2022-09-09T14:51:07;1.65;;;0.73;;
40373;SDS011;26079;45.958;12.492;2022-09-09T14:53:40;2.33;;;0.55;;
40373;SDS011;26079;45.958;12.492;2022-09-09T14:56:12;2.05;;;0.70;;
40373;SDS011;26079;45.958;12.492;2022-09-09T14:59:17;0.73;;;0.65;;
40373;SDS011;26079;45.958;12.492;2022-09-09T15:01:45;1.40;;;0.70;;
40373;SDS011;26079;45.958;12.492;2022-09-09T15:04:11;2.55;;;1.65;;
40373;SDS011;26079;45.958;12.492;2022-09-09T15:06:43;1.15;;;0.98;;
40373;SDS011;26079;45.958;12.492;2022-09-09T15:09:12;1.13;;;0.88;;
40373;SDS011;26079;45.958;12.492;2022-09-09T15:11:45;3.67;;;1.35;;
40373;SDS011;26079;45.958;12.492;2022-09-09T15:14:11;2.25;;;0.90;;
40373;SDS011;26079;45.958;12.492;2022-09-09T15:16:37;1.35;;;0.80;;
40373;SDS011;26079;45.958;12.492;2022-09-09T15:19:07;2.10;;;1.30;;
40373;SDS011;26079;45.958;12.492;2022-09-09T15:21:37;0.73;;;0.68;;
40373;SDS011;26079;45.958;12.492;2022-09-09T15:24:05;1.52;;;1.40;;
40373;SDS011;26079;45.958;12.492;2022-09-09T15:26:44;1.30;;;0.47;;
40373;SDS011;26079;45.958;12.492;2022-09-09T15:29:30;0.52;;;0.47;;
40373;SDS011;26079;45.958;12.492;2022-09-09T15:31:58;2.50;;;0.82;;
40373;SDS011;26079;45.958;12.492;2022-09-09T15:34:27;0.60;;;0.45;;
40373;SDS011;26079;45.958;12.492;2022-09-09T15:37:05;0.70;;;0.60;;
40373;SDS011;26079;45.958;12.492;2022-09-09T15:42:23;2.70;;;0.68;;
40373;SDS011;26079;45.958;12.492;2022-09-09T15:47:30;1.63;;;0.60;;
40373;SDS011;26079;45.958;12.492;2022-09-09T15:49:58;1.30;;;1.20;;
40373;SDS011;26079;45.958;12.492;2022-09-09T15:52:26;1.10;;;1.05;;
40373;SDS011;26079;45.958;12.492;2022-09-09T15:54:55;0.73;;;0.63;;
40373;SDS011;26079;45.958;12.492;2022-09-09T15:57:23;1.30;;;0.50;;
40373;SDS011;26079;45.958;12.492;2022-09-09T15:59:55;1.33;;;1.17;;
40373;SDS011;26079;45.958;12.492;2022-09-09T16:02:20;1.08;;;0.65;;
40373;SDS011;26079;45.958;12.492;2022-09-09T16:04:49;1.25;;;0.65;;
40373;SDS011;26079;45.958;12.492;2022-09-09T16:07:15;5.05;;;0.63;;
40373;SDS011;26079;45.958;12.492;2022-09-09T16:09:41;0.43;;;0.40;;
40373;SDS011;26079;45.958;12.492;2022-09-09T16:12:08;1.30;;;0.60;;
40373;SDS011;26079;45.958;12.492;2022-09-09T16:14:38;0.77;;;0.45;;
40373;SDS011;26079;45.958;12.492;2022-09-09T16:17:04;0.38;;;0.35;;
40373;SDS011;26079;45.958;12.492;2022-09-09T16:19:31;0.50;;;0.50;;
40373;SDS011;26079;45.958;12.492;2022-09-09T16:21:57;1.23;;;0.52;;
40373;SDS011;26079;45.958;12.492;2022-09-09T16:24:23;0.77;;;0.50;;
40373;SDS011;26079;45.958;12.492;2022-09-09T16:26:50;0.82;;;0.50;;
40373;SDS011;26079;45.958;12.492;2022-09-09T16:29:19;0.38;;;0.32;;
40373;SDS011;26079;45.958;12.492;2022-09-09T16:31:46;0.88;;;0.50;;
40373;SDS011;26079;45.958;12.492;2022-09-09T16:34:16;0.60;;;0.40;;
40373;SDS011;26079;45.958;12.492;2022-09-09T16:36:42;1.63;;;0.60;;
40373;SDS011;26079;45.958;12.492;2022-09-09T16:39:16;1.65;;;0.68;;
40373;SDS011;26079;45.958;12.492;2022-09-09T16:41:45;0.32;;;0.30;;
40373;SDS011;26079;45.958;12.492;2022-09-09T16:44:19;0.40;;;0.40;;
40373;SDS011;26079;45.958;12.492;2022-09-09T16:46:45;0.85;;;0.73;;
40373;SDS011;26079;45.958;12.492;2022-09-09T16:49:17;0.43;;;0.32;;
40373;SDS011;26079;45.958;12.492;2022-09-09T16:51:46;1.73;;;0.38;;
40373;SDS011;26079;45.958;12.492;2022-09-09T16:54:17;0.57;;;0.30;;
40373;SDS011;26079;45.958;12.492;2022-09-09T16:56:46;1.95;;;0.43;;
40373;SDS011;26079;45.958;12.492;2022-09-09T16:59:14;0.75;;;0.35;;
40373;SDS011;26079;45.958;12.492;2022-09-09T17:01:44;3.80;;;0.73;;
40373;SDS011;26079;45.958;12.492;2022-09-09T17:04:19;0.95;;;0.30;;
40373;SDS011;26079;45.958;12.492;2022-09-09T17:06:55;0.60;;;0.30;;
40373;SDS011;26079;45.958;12.492;2022-09-09T17:09:22;1.95;;;0.20;;
40373;SDS011;26079;45.958;12.492;2022-09-09T17:11:52;0.88;;;0.50;;
40373;SDS011;26079;45.958;12.492;2022-09-09T17:14:31;0.88;;;0.35;;
40373;SDS011;26079;45.958;12.492;2022-09-09T17:16:57;0.30;;;0.30;;
40373;SDS011;26079;45.958;12.492;2022-09-09T17:19:23;1.13;;;0.35;;
40373;SDS011;26079;45.958;12.492;2022-09-09T17:21:48;1.65;;;0.57;;
40373;SDS011;26079;45.958;12.492;2022-09-09T17:24:17;0.75;;;0.65;;
40373;SDS011;26079;45.958;12.492;2022-09-09T17:26:43;1.55;;;0.38;;
40373;SDS011;26079;45.958;12.492;2022-09-09T17:29:14;0.90;;;0.70;;
40373;SDS011;26079;45.958;12.492;2022-09-09T17:31:41;1.58;;;0.70;;
40373;SDS011;26079;45.958;12.492;2022-09-09T17:34:08;1.27;;;0.70;;
40373;SDS011;26079;45.958;12.492;2022-09-09T17:36:39;4.13;;;1.95;;
40373;SDS011;26079;45.958;12.492;2022-09-09T17:39:05;2.25;;;1.25;;
40373;SDS011;26079;45.958;12.492;2022-09-09T17:41:32;2.00;;;0.90;;
40373;SDS011;26079;45.958;12.492;2022-09-09T17:44:00;1.92;;;0.68;;
40373;SDS011;26079;45.958;12.492;2022-09-09T17:46:36;7.13;;;0.65;;
40373;SDS011;26079;45.958;12.492;2022-09-09T17:49:07;0.85;;;0.70;;
40373;SDS011;26079;45.958;12.492;2022-09-09T17:51:41;1.25;;;0.90;;